AVA1408 MDSD-SKRG
Flight info
| Callsign | AVA1408 |
|---|---|
| Flight time | 2h 7m |
| Altitude | 35000 |
| Route | BEROX2J BEROX DCT AMBAS DCT VUP DCT ELB DCT UGALU DCT BIVIG BIVIG3C |
| Aircraft | A20N/M-SDE2E3FGHIRWXY/LB1 |
Departure
| Time | 2026-05-08 21:17 |
|---|---|
| Airport | Las Américas International Airport (MDSD) |
Arrival
| Time | 2026-05-08 23:24 |
|---|---|
| Airport | Jose Maria Córdova International Airport (SKRG) |
| Time | Latitude | Longitude | Altitude | Speed | Heading |
|---|---|---|---|---|---|
| 2026-05-08 20:58 | 18.43156 | -69.67567 | 57 ft | 0 kts | 241° |
| 2026-05-08 21:08 | 18.43157 | -69.67565 | 49 ft | 0 kts | 236° |
| 2026-05-08 21:08 | 18.43158 | -69.67563 | 49 ft | 0 kts | 229° |
| 2026-05-08 21:09 | 18.43164 | -69.67554 | 48 ft | 2 kts | 242° |
| 2026-05-08 21:09 | 18.43172 | -69.67534 | 49 ft | 2 kts | 248° |
| 2026-05-08 21:09 | 18.43178 | -69.67517 | 54 ft | 2 kts | 263° |
| 2026-05-08 21:10 | 18.43178 | -69.67499 | 54 ft | 2 kts | 290° |
| 2026-05-08 21:10 | 18.43169 | -69.67484 | 50 ft | 2 kts | 327° |
| 2026-05-08 21:10 | 18.43163 | -69.67480 | 50 ft | 0 kts | 341° |
| 2026-05-08 21:12 | 18.43169 | -69.67482 | 49 ft | 4 kts | 341° |
| 2026-05-08 21:13 | 18.43222 | -69.67501 | 53 ft | 13 kts | 341° |
| 2026-05-08 21:13 | 18.43337 | -69.67541 | 55 ft | 22 kts | 342° |
| 2026-05-08 21:13 | 18.43458 | -69.67532 | 53 ft | 18 kts | 336° |
| 2026-05-08 21:13 | 18.43601 | -69.67595 | 52 ft | 26 kts | 339° |
| 2026-05-08 21:14 | 18.43787 | -69.67670 | 50 ft | 31 kts | 339° |
| 2026-05-08 21:14 | 18.44004 | -69.67759 | 51 ft | 34 kts | 339° |
| 2026-05-08 21:14 | 18.44151 | -69.67728 | 50 ft | 22 kts | 52° |
| 2026-05-08 21:14 | 18.44182 | -69.67631 | 47 ft | 9 kts | 70° |
| 2026-05-08 21:15 | 18.44222 | -69.67568 | 49 ft | 12 kts | 40° |
| 2026-05-08 21:15 | 18.44301 | -69.67523 | 50 ft | 14 kts | 25° |
| 2026-05-08 21:15 | 18.44354 | -69.67485 | 50 ft | 0 kts | 54° |
| 2026-05-08 21:15 | 18.44354 | -69.67484 | 50 ft | 1 kts | 55° |
| 2026-05-08 21:16 | 18.44365 | -69.67451 | 50 ft | 9 kts | 83° |
| 2026-05-08 21:16 | 18.44316 | -69.67389 | 50 ft | 11 kts | 161° |
| 2026-05-08 21:16 | 18.44312 | -69.67387 | 50 ft | 0 kts | 162° |
| 2026-05-08 21:16 | 18.44173 | -69.67338 | 51 ft | 56 kts | 160° |
| 2026-05-08 21:17 | 18.43585 | -69.67123 | 52 ft | 118 kts | 161° |
| 2026-05-08 21:17 | 18.42660 | -69.66782 | 75 ft | 162 kts | 161° |
| 2026-05-08 21:17 | 18.41620 | -69.66393 | 700 ft | 157 kts | 161° |
| 2026-05-08 21:17 | 18.40600 | -69.66002 | 1304 ft | 159 kts | 160° |
| 2026-05-08 21:18 | 18.39552 | -69.65591 | 1878 ft | 156 kts | 160° |
| 2026-05-08 21:18 | 18.38532 | -69.65217 | 2334 ft | 158 kts | 162° |
| 2026-05-08 21:18 | 18.37453 | -69.64839 | 2818 ft | 171 kts | 162° |
| 2026-05-08 21:18 | 18.36246 | -69.64513 | 3280 ft | 190 kts | 172° |
| 2026-05-08 21:19 | 18.34872 | -69.64335 | 3791 ft | 209 kts | 173° |
| 2026-05-08 21:19 | 18.33340 | -69.64129 | 4251 ft | 233 kts | 173° |
| 2026-05-08 21:19 | 18.31644 | -69.63890 | 4826 ft | 255 kts | 173° |
| 2026-05-08 21:19 | 18.29845 | -69.63630 | 5516 ft | 268 kts | 172° |
| 2026-05-08 21:20 | 18.27965 | -69.63356 | 6484 ft | 272 kts | 172° |
| 2026-05-08 21:20 | 18.26092 | -69.63083 | 7436 ft | 276 kts | 172° |
| 2026-05-08 21:20 | 18.24183 | -69.62805 | 8360 ft | 280 kts | 172° |
| 2026-05-08 21:20 | 18.22220 | -69.62519 | 9285 ft | 284 kts | 172° |
| 2026-05-08 21:21 | 18.20262 | -69.62235 | 10177 ft | 288 kts | 172° |
| 2026-05-08 21:21 | 18.18223 | -69.61940 | 10675 ft | 308 kts | 172° |
| 2026-05-08 21:21 | 18.15992 | -69.61617 | 11005 ft | 332 kts | 172° |
| 2026-05-08 21:21 | 18.13675 | -69.61282 | 11622 ft | 341 kts | 172° |
| 2026-05-08 21:22 | 18.11329 | -69.60944 | 12446 ft | 345 kts | 173° |
| 2026-05-08 21:22 | 18.08899 | -69.60810 | 13245 ft | 349 kts | 182° |
| 2026-05-08 21:22 | 18.06474 | -69.61059 | 14014 ft | 353 kts | 190° |
| 2026-05-08 21:22 | 18.04070 | -69.61596 | 14759 ft | 357 kts | 193° |
| 2026-05-08 21:23 | 18.01632 | -69.62151 | 15494 ft | 361 kts | 192° |
| 2026-05-08 21:23 | 17.99152 | -69.62708 | 16210 ft | 365 kts | 192° |
| 2026-05-08 21:23 | 17.96680 | -69.63259 | 16767 ft | 369 kts | 192° |
| 2026-05-08 21:23 | 17.94131 | -69.63827 | 16953 ft | 370 kts | 192° |
| 2026-05-08 21:24 | 17.91633 | -69.64384 | 17006 ft | 371 kts | 192° |
| 2026-05-08 21:24 | 17.89093 | -69.64950 | 17007 ft | 370 kts | 192° |
| 2026-05-08 21:24 | 17.86591 | -69.65507 | 17007 ft | 370 kts | 192° |
| 2026-05-08 21:24 | 17.84061 | -69.66071 | 17007 ft | 370 kts | 192° |
| 2026-05-08 21:25 | 17.81546 | -69.66631 | 17007 ft | 370 kts | 192° |
| 2026-05-08 21:25 | 17.79039 | -69.67189 | 17007 ft | 370 kts | 192° |
| 2026-05-08 21:25 | 17.76512 | -69.67752 | 17007 ft | 370 kts | 192° |
| 2026-05-08 21:25 | 17.73977 | -69.68316 | 17007 ft | 370 kts | 192° |
| 2026-05-08 21:26 | 17.71467 | -69.68875 | 17007 ft | 370 kts | 192° |
| 2026-05-08 21:26 | 17.68930 | -69.69439 | 17007 ft | 370 kts | 192° |
| 2026-05-08 21:26 | 17.66434 | -69.69994 | 17007 ft | 370 kts | 192° |
| 2026-05-08 21:26 | 17.63920 | -69.70553 | 17007 ft | 370 kts | 192° |
| 2026-05-08 21:27 | 17.61376 | -69.71118 | 17007 ft | 370 kts | 192° |
| 2026-05-08 21:27 | 17.58877 | -69.71674 | 17007 ft | 370 kts | 192° |
| 2026-05-08 21:27 | 17.56345 | -69.72236 | 17007 ft | 370 kts | 192° |
| 2026-05-08 21:27 | 17.53848 | -69.72790 | 17007 ft | 370 kts | 192° |
| 2026-05-08 21:28 | 17.51313 | -69.73353 | 17007 ft | 370 kts | 192° |
| 2026-05-08 21:28 | 17.48808 | -69.73909 | 17007 ft | 370 kts | 192° |
| 2026-05-08 21:28 | 17.46282 | -69.74469 | 17007 ft | 370 kts | 192° |
| 2026-05-08 21:28 | 17.43768 | -69.75027 | 17086 ft | 373 kts | 192° |
| 2026-05-08 21:29 | 17.41193 | -69.75598 | 17710 ft | 375 kts | 192° |
| 2026-05-08 21:29 | 17.38658 | -69.76160 | 18430 ft | 377 kts | 192° |
| 2026-05-08 21:29 | 17.36074 | -69.76733 | 19057 ft | 381 kts | 192° |
| 2026-05-08 21:29 | 17.33476 | -69.77308 | 19682 ft | 384 kts | 192° |
| 2026-05-08 21:30 | 17.30835 | -69.77893 | 20305 ft | 388 kts | 192° |
| 2026-05-08 21:30 | 17.28164 | -69.78484 | 20893 ft | 392 kts | 192° |
| 2026-05-08 21:30 | 17.25497 | -69.79075 | 21468 ft | 395 kts | 192° |
| 2026-05-08 21:30 | 17.22822 | -69.79667 | 22029 ft | 399 kts | 192° |
| 2026-05-08 21:31 | 17.20074 | -69.80275 | 22587 ft | 402 kts | 192° |
| 2026-05-08 21:31 | 17.17320 | -69.80884 | 23128 ft | 405 kts | 192° |
| 2026-05-08 21:31 | 17.14559 | -69.81494 | 23645 ft | 409 kts | 192° |
| 2026-05-08 21:31 | 17.11753 | -69.82114 | 24167 ft | 412 kts | 192° |
| 2026-05-08 21:32 | 17.08957 | -69.82732 | 24663 ft | 415 kts | 192° |
| 2026-05-08 21:32 | 17.06107 | -69.83361 | 25148 ft | 418 kts | 192° |
| 2026-05-08 21:32 | 17.03264 | -69.83989 | 25611 ft | 421 kts | 192° |
| 2026-05-08 21:32 | 17.00402 | -69.84621 | 26048 ft | 424 kts | 192° |
| 2026-05-08 21:33 | 16.97500 | -69.85262 | 26498 ft | 427 kts | 192° |
| 2026-05-08 21:33 | 16.94551 | -69.85912 | 26924 ft | 430 kts | 192° |
| 2026-05-08 21:33 | 16.91633 | -69.86556 | 27331 ft | 433 kts | 192° |
| 2026-05-08 21:33 | 16.88691 | -69.87205 | 27721 ft | 436 kts | 192° |
| 2026-05-08 21:34 | 16.85718 | -69.87860 | 28101 ft | 438 kts | 192° |
| 2026-05-08 21:34 | 16.82700 | -69.88525 | 28468 ft | 441 kts | 192° |
| 2026-05-08 21:34 | 16.79712 | -69.89183 | 28817 ft | 443 kts | 192° |
| 2026-05-08 21:34 | 16.76675 | -69.89852 | 29158 ft | 445 kts | 192° |
| 2026-05-08 21:35 | 16.73648 | -69.90518 | 29485 ft | 448 kts | 192° |
| 2026-05-08 21:35 | 16.70613 | -69.91186 | 29800 ft | 450 kts | 192° |
| 2026-05-08 21:35 | 16.67525 | -69.91865 | 30123 ft | 452 kts | 192° |
| 2026-05-08 21:35 | 16.64450 | -69.92541 | 30439 ft | 455 kts | 192° |
| 2026-05-08 21:36 | 16.61339 | -69.93225 | 30755 ft | 457 kts | 192° |
| 2026-05-08 21:36 | 16.58202 | -69.93915 | 31073 ft | 459 kts | 192° |
| 2026-05-08 21:36 | 16.55109 | -69.94594 | 31448 ft | 459 kts | 192° |
| 2026-05-08 21:36 | 16.51966 | -69.95284 | 31858 ft | 458 kts | 192° |
| 2026-05-08 21:37 | 16.48870 | -69.95964 | 32250 ft | 457 kts | 192° |
| 2026-05-08 21:37 | 16.45770 | -69.96644 | 32636 ft | 456 kts | 192° |
| 2026-05-08 21:37 | 16.42634 | -69.97332 | 33010 ft | 456 kts | 192° |
| 2026-05-08 21:37 | 16.39549 | -69.98009 | 33366 ft | 455 kts | 192° |
| 2026-05-08 21:38 | 16.36439 | -69.98691 | 33714 ft | 454 kts | 192° |
| 2026-05-08 21:38 | 16.33386 | -69.99360 | 34047 ft | 453 kts | 192° |
| 2026-05-08 21:38 | 16.30279 | -70.00041 | 34369 ft | 453 kts | 192° |
| 2026-05-08 21:38 | 16.27339 | -70.00685 | 34666 ft | 452 kts | 192° |
| 2026-05-08 21:39 | 16.24242 | -70.01363 | 34928 ft | 452 kts | 192° |
| 2026-05-08 21:39 | 16.19143 | -70.02479 | 35000 ft | 450 kts | 192° |
| 2026-05-08 21:40 | 16.13027 | -70.03817 | 34999 ft | 450 kts | 192° |
| 2026-05-08 21:40 | 16.06860 | -70.05166 | 34996 ft | 450 kts | 192° |
| 2026-05-08 21:41 | 15.97902 | -70.07938 | 35000 ft | 449 kts | 205° |
| 2026-05-08 21:41 | 15.92398 | -70.10989 | 35001 ft | 449 kts | 209° |
| 2026-05-08 21:42 | 15.86933 | -70.14103 | 35002 ft | 450 kts | 209° |
| 2026-05-08 21:42 | 15.81447 | -70.17222 | 35004 ft | 450 kts | 209° |
| 2026-05-08 21:43 | 15.75939 | -70.20352 | 35003 ft | 450 kts | 209° |
| 2026-05-08 21:43 | 15.70463 | -70.23463 | 35008 ft | 450 kts | 209° |
| 2026-05-08 21:44 | 15.64954 | -70.26591 | 35006 ft | 450 kts | 209° |
| 2026-05-08 21:44 | 15.59465 | -70.29705 | 35005 ft | 450 kts | 209° |
| 2026-05-08 21:45 | 15.53976 | -70.32817 | 35003 ft | 450 kts | 209° |
| 2026-05-08 21:45 | 15.48511 | -70.35914 | 35000 ft | 450 kts | 209° |
| 2026-05-08 21:46 | 15.43013 | -70.39028 | 35005 ft | 449 kts | 209° |
| 2026-05-08 21:46 | 15.37537 | -70.42127 | 35002 ft | 449 kts | 209° |
| 2026-05-08 21:47 | 15.32033 | -70.45240 | 34999 ft | 449 kts | 209° |
| 2026-05-08 21:47 | 15.26545 | -70.48342 | 35001 ft | 449 kts | 209° |
| 2026-05-08 21:48 | 15.21087 | -70.51426 | 34996 ft | 449 kts | 209° |
| 2026-05-08 21:48 | 15.15582 | -70.54534 | 35001 ft | 449 kts | 209° |
| 2026-05-08 21:49 | 15.10114 | -70.57620 | 35000 ft | 449 kts | 209° |
| 2026-05-08 21:49 | 15.04596 | -70.60732 | 35002 ft | 449 kts | 209° |
| 2026-05-08 21:50 | 14.99134 | -70.63810 | 35000 ft | 449 kts | 208° |
| 2026-05-08 21:50 | 14.93632 | -70.66909 | 34998 ft | 449 kts | 208° |
| 2026-05-08 21:51 | 14.88167 | -70.69986 | 34998 ft | 449 kts | 208° |
| 2026-05-08 21:51 | 14.82667 | -70.73080 | 34998 ft | 449 kts | 208° |
| 2026-05-08 21:52 | 14.77182 | -70.76164 | 34996 ft | 449 kts | 208° |
| 2026-05-08 21:52 | 14.71689 | -70.79251 | 35003 ft | 449 kts | 208° |
| 2026-05-08 21:53 | 14.66198 | -70.82335 | 34996 ft | 449 kts | 208° |
| 2026-05-08 21:53 | 14.60713 | -70.85414 | 35002 ft | 449 kts | 208° |
| 2026-05-08 21:54 | 14.55194 | -70.88510 | 35002 ft | 449 kts | 208° |
| 2026-05-08 21:54 | 14.49710 | -70.91585 | 34996 ft | 449 kts | 208° |
| 2026-05-08 21:55 | 14.44239 | -70.94650 | 35003 ft | 449 kts | 208° |
| 2026-05-08 21:56 | 14.36000 | -70.99264 | 35001 ft | 449 kts | 208° |
| 2026-05-08 21:56 | 14.30505 | -71.02339 | 35000 ft | 449 kts | 208° |
| 2026-05-08 21:57 | 14.24994 | -71.05421 | 35004 ft | 449 kts | 208° |
| 2026-05-08 21:57 | 14.19505 | -71.08489 | 34996 ft | 449 kts | 208° |
| 2026-05-08 21:58 | 14.14016 | -71.11555 | 34997 ft | 449 kts | 208° |
| 2026-05-08 21:58 | 14.08520 | -71.14624 | 35000 ft | 449 kts | 208° |
| 2026-05-08 21:59 | 14.03001 | -71.17703 | 34998 ft | 449 kts | 208° |
| 2026-05-08 21:59 | 13.97513 | -71.20764 | 34997 ft | 449 kts | 208° |
| 2026-05-08 22:00 | 13.92047 | -71.23811 | 34998 ft | 449 kts | 208° |
| 2026-05-08 22:00 | 13.86523 | -71.26889 | 35003 ft | 449 kts | 208° |
| 2026-05-08 22:01 | 13.81025 | -71.29950 | 35008 ft | 449 kts | 208° |
| 2026-05-08 22:01 | 13.75531 | -71.33007 | 35001 ft | 449 kts | 208° |
| 2026-05-08 22:02 | 13.70039 | -71.36062 | 34998 ft | 449 kts | 208° |
| 2026-05-08 22:02 | 13.64564 | -71.39105 | 35002 ft | 449 kts | 208° |
| 2026-05-08 22:03 | 13.59070 | -71.42158 | 35007 ft | 449 kts | 208° |
| 2026-05-08 22:03 | 13.54468 | -71.44714 | 35001 ft | 449 kts | 208° |
| 2026-05-08 22:04 | 13.54335 | -71.44787 | 35006 ft | 449 kts | 208° |
| 2026-05-08 22:04 | 13.50435 | -71.46952 | 35003 ft | 449 kts | 208° |
| 2026-05-08 22:05 | 13.44936 | -71.50003 | 35001 ft | 449 kts | 208° |
| 2026-05-08 22:05 | 13.39437 | -71.53053 | 34996 ft | 449 kts | 208° |
| 2026-05-08 22:06 | 13.33902 | -71.56121 | 34998 ft | 449 kts | 208° |
| 2026-05-08 22:06 | 13.28438 | -71.59147 | 35000 ft | 449 kts | 208° |
| 2026-05-08 22:07 | 13.22898 | -71.62215 | 35002 ft | 449 kts | 208° |
| 2026-05-08 22:07 | 13.17426 | -71.65243 | 35005 ft | 449 kts | 208° |
| 2026-05-08 22:08 | 13.11924 | -71.68286 | 34998 ft | 449 kts | 208° |
| 2026-05-08 22:08 | 13.06386 | -71.71348 | 35002 ft | 449 kts | 208° |
| 2026-05-08 22:09 | 13.00899 | -71.74380 | 34996 ft | 449 kts | 208° |
| 2026-05-08 22:09 | 12.95398 | -71.77418 | 34998 ft | 449 kts | 208° |
| 2026-05-08 22:10 | 12.89889 | -71.80459 | 35007 ft | 449 kts | 208° |
| 2026-05-08 22:10 | 12.84397 | -71.83490 | 34995 ft | 449 kts | 208° |
| 2026-05-08 22:11 | 12.78929 | -71.86555 | 35002 ft | 449 kts | 210° |
| 2026-05-08 22:11 | 12.73540 | -71.89798 | 35004 ft | 449 kts | 211° |
| 2026-05-08 22:12 | 12.68141 | -71.93044 | 34995 ft | 449 kts | 210° |
| 2026-05-08 22:12 | 12.62747 | -71.96261 | 34996 ft | 449 kts | 210° |
| 2026-05-08 22:13 | 12.57344 | -71.99474 | 34999 ft | 449 kts | 210° |
| 2026-05-08 22:13 | 12.51939 | -72.02687 | 35005 ft | 449 kts | 210° |
| 2026-05-08 22:14 | 12.46544 | -72.05893 | 34995 ft | 449 kts | 210° |
| 2026-05-08 22:14 | 12.41122 | -72.09113 | 34999 ft | 449 kts | 210° |
| 2026-05-08 22:15 | 12.35710 | -72.12326 | 35000 ft | 449 kts | 210° |
| 2026-05-08 22:15 | 12.30303 | -72.15534 | 34997 ft | 449 kts | 210° |
| 2026-05-08 22:16 | 12.24872 | -72.18755 | 35005 ft | 449 kts | 210° |
| 2026-05-08 22:16 | 12.19488 | -72.21946 | 35008 ft | 449 kts | 210° |
| 2026-05-08 22:17 | 12.14080 | -72.25151 | 34998 ft | 449 kts | 210° |
| 2026-05-08 22:17 | 12.08675 | -72.28352 | 35006 ft | 449 kts | 210° |
| 2026-05-08 22:18 | 12.03250 | -72.31563 | 35003 ft | 449 kts | 210° |
| 2026-05-08 22:18 | 11.97867 | -72.34748 | 34997 ft | 449 kts | 210° |
| 2026-05-08 22:19 | 11.92449 | -72.37952 | 35005 ft | 449 kts | 210° |
| 2026-05-08 22:19 | 11.87081 | -72.41125 | 35057 ft | 429 kts | 210° |
| 2026-05-08 22:19 | 11.84537 | -72.42628 | 34879 ft | 417 kts | 210° |
| 2026-05-08 22:20 | 11.82045 | -72.44101 | 34995 ft | 422 kts | 210° |
| 2026-05-08 22:20 | 11.76871 | -72.47157 | 35000 ft | 437 kts | 210° |
| 2026-05-08 22:21 | 11.71490 | -72.50334 | 35004 ft | 450 kts | 210° |
| 2026-05-08 22:21 | 11.66961 | -72.53005 | 34998 ft | 449 kts | 210° |
| 2026-05-08 22:22 | 11.61528 | -72.56210 | 34999 ft | 449 kts | 210° |
| 2026-05-08 22:22 | 11.56139 | -72.59387 | 35004 ft | 449 kts | 210° |
| 2026-05-08 22:23 | 11.50714 | -72.62584 | 34999 ft | 449 kts | 210° |
| 2026-05-08 22:23 | 11.45304 | -72.65771 | 35003 ft | 450 kts | 210° |
| 2026-05-08 22:24 | 11.39896 | -72.68955 | 35008 ft | 450 kts | 210° |
| 2026-05-08 22:24 | 11.34506 | -72.72127 | 35009 ft | 450 kts | 210° |
| 2026-05-08 22:25 | 11.29081 | -72.75318 | 35005 ft | 450 kts | 210° |
| 2026-05-08 22:25 | 11.23682 | -72.78493 | 35000 ft | 450 kts | 210° |
| 2026-05-08 22:26 | 11.18287 | -72.81664 | 35005 ft | 450 kts | 210° |
| 2026-05-08 22:26 | 11.12810 | -72.84881 | 34994 ft | 450 kts | 210° |
| 2026-05-08 22:27 | 11.07373 | -72.88074 | 35000 ft | 457 kts | 210° |
| 2026-05-08 22:27 | 11.01852 | -72.91315 | 34997 ft | 456 kts | 210° |
| 2026-05-08 22:28 | 10.96388 | -72.94535 | 35005 ft | 453 kts | 211° |
| 2026-05-08 22:28 | 10.90951 | -72.97747 | 34995 ft | 451 kts | 211° |
| 2026-05-08 22:29 | 10.85520 | -73.00934 | 35002 ft | 453 kts | 210° |
| 2026-05-08 22:29 | 10.80029 | -73.04146 | 35002 ft | 453 kts | 210° |
| 2026-05-08 22:30 | 10.74597 | -73.07323 | 34995 ft | 450 kts | 210° |
| 2026-05-08 22:30 | 10.69159 | -73.10502 | 34999 ft | 450 kts | 210° |
| 2026-05-08 22:31 | 10.63727 | -73.13677 | 34995 ft | 450 kts | 210° |
| 2026-05-08 22:31 | 10.58234 | -73.16888 | 34996 ft | 464 kts | 210° |
| 2026-05-08 22:32 | 10.52576 | -73.20195 | 34995 ft | 473 kts | 210° |
| 2026-05-08 22:32 | 10.46866 | -73.23530 | 35003 ft | 473 kts | 210° |
| 2026-05-08 22:33 | 10.41047 | -73.26598 | 34997 ft | 473 kts | 199° |
| 2026-05-08 22:33 | 10.34898 | -73.28842 | 34997 ft | 473 kts | 210° |
| 2026-05-08 22:34 | 10.29293 | -73.32383 | 35003 ft | 473 kts | 211° |
| 2026-05-08 22:34 | 10.23539 | -73.35674 | 35000 ft | 473 kts | 208° |
| 2026-05-08 22:35 | 10.17696 | -73.38726 | 34999 ft | 473 kts | 207° |
| 2026-05-08 22:35 | 10.11851 | -73.41725 | 34999 ft | 473 kts | 207° |
| 2026-05-08 22:36 | 10.05979 | -73.44738 | 35000 ft | 473 kts | 207° |
| 2026-05-08 22:36 | 10.00091 | -73.47764 | 34994 ft | 473 kts | 207° |
| 2026-05-08 22:37 | 9.94245 | -73.50767 | 35000 ft | 473 kts | 207° |
| 2026-05-08 22:37 | 9.88353 | -73.53793 | 34994 ft | 472 kts | 207° |
| 2026-05-08 22:38 | 9.82535 | -73.56780 | 35001 ft | 472 kts | 207° |
| 2026-05-08 22:38 | 9.76665 | -73.59792 | 34994 ft | 472 kts | 207° |
| 2026-05-08 22:39 | 9.70772 | -73.62815 | 34996 ft | 472 kts | 207° |
| 2026-05-08 22:39 | 9.64915 | -73.65819 | 34996 ft | 472 kts | 207° |
| 2026-05-08 22:40 | 9.59046 | -73.68827 | 35002 ft | 472 kts | 207° |
| 2026-05-08 22:40 | 9.53187 | -73.71829 | 35002 ft | 472 kts | 207° |
| 2026-05-08 22:41 | 9.47320 | -73.74834 | 34994 ft | 472 kts | 207° |
| 2026-05-08 22:41 | 9.41466 | -73.77831 | 35001 ft | 472 kts | 207° |
| 2026-05-08 22:42 | 9.35614 | -73.80826 | 34994 ft | 472 kts | 207° |
| 2026-05-08 22:42 | 9.29753 | -73.83825 | 35004 ft | 473 kts | 207° |
| 2026-05-08 22:43 | 9.23897 | -73.86820 | 34998 ft | 472 kts | 207° |
| 2026-05-08 22:43 | 9.18029 | -73.89820 | 34997 ft | 472 kts | 207° |
| 2026-05-08 22:44 | 9.12164 | -73.92817 | 35000 ft | 472 kts | 207° |
| 2026-05-08 22:44 | 9.06297 | -73.95814 | 35003 ft | 472 kts | 207° |
| 2026-05-08 22:45 | 9.00484 | -73.98932 | 35001 ft | 472 kts | 210° |
| 2026-05-08 22:45 | 8.94804 | -74.02276 | 35002 ft | 472 kts | 210° |
| 2026-05-08 22:46 | 8.89118 | -74.05591 | 35002 ft | 472 kts | 210° |
| 2026-05-08 22:46 | 8.83407 | -74.08885 | 34995 ft | 472 kts | 210° |
| 2026-05-08 22:47 | 8.77685 | -74.12177 | 34998 ft | 474 kts | 210° |
| 2026-05-08 22:47 | 8.71953 | -74.15474 | 34994 ft | 472 kts | 210° |
| 2026-05-08 22:48 | 8.66411 | -74.18660 | 35025 ft | 448 kts | 210° |
| 2026-05-08 22:48 | 8.60987 | -74.21779 | 34995 ft | 450 kts | 210° |
| 2026-05-08 22:49 | 8.55557 | -74.24900 | 35002 ft | 451 kts | 210° |
| 2026-05-08 22:49 | 8.47402 | -74.29585 | 35003 ft | 449 kts | 210° |
| 2026-05-08 22:50 | 8.41954 | -74.32713 | 34995 ft | 450 kts | 210° |
| 2026-05-08 22:50 | 8.36510 | -74.35839 | 34998 ft | 449 kts | 210° |
| 2026-05-08 22:51 | 8.31062 | -74.38965 | 34999 ft | 453 kts | 210° |
| 2026-05-08 22:51 | 8.25628 | -74.42082 | 35003 ft | 449 kts | 210° |
| 2026-05-08 22:52 | 8.20167 | -74.45214 | 34997 ft | 452 kts | 210° |
| 2026-05-08 22:52 | 8.14706 | -74.48345 | 35003 ft | 453 kts | 210° |
| 2026-05-08 22:53 | 8.09240 | -74.51477 | 34999 ft | 451 kts | 210° |
| 2026-05-08 22:53 | 8.03751 | -74.54623 | 34997 ft | 449 kts | 210° |
| 2026-05-08 22:54 | 7.98320 | -74.57733 | 35000 ft | 453 kts | 210° |
| 2026-05-08 22:54 | 7.92827 | -74.60878 | 35001 ft | 452 kts | 210° |
| 2026-05-08 22:55 | 7.87377 | -74.63998 | 34995 ft | 453 kts | 210° |
| 2026-05-08 22:55 | 7.81902 | -74.67131 | 34999 ft | 451 kts | 210° |
| 2026-05-08 22:56 | 7.76438 | -74.70257 | 34995 ft | 450 kts | 210° |
| 2026-05-08 22:56 | 7.70999 | -74.73367 | 35006 ft | 449 kts | 210° |
| 2026-05-08 22:57 | 7.65682 | -74.76662 | 35006 ft | 450 kts | 214° |
| 2026-05-08 22:57 | 7.60495 | -74.80170 | 34998 ft | 449 kts | 214° |
| 2026-05-08 22:58 | 7.55295 | -74.83676 | 34997 ft | 450 kts | 214° |
| 2026-05-08 22:58 | 7.50084 | -74.87188 | 34999 ft | 450 kts | 214° |
| 2026-05-08 22:59 | 7.44892 | -74.90686 | 34995 ft | 450 kts | 214° |
| 2026-05-08 22:59 | 7.39714 | -74.94174 | 34998 ft | 450 kts | 214° |
| 2026-05-08 23:00 | 7.34502 | -74.97684 | 35000 ft | 452 kts | 214° |
| 2026-05-08 23:00 | 7.29284 | -75.01197 | 35006 ft | 452 kts | 214° |
| 2026-05-08 23:01 | 7.24023 | -75.04738 | 34999 ft | 454 kts | 214° |
| 2026-05-08 23:01 | 7.18770 | -75.08272 | 35004 ft | 455 kts | 214° |
| 2026-05-08 23:02 | 7.13468 | -75.11840 | 34995 ft | 459 kts | 214° |
| 2026-05-08 23:02 | 7.08170 | -75.15431 | 35000 ft | 460 kts | 214° |
| 2026-05-08 23:03 | 7.02546 | -75.18385 | 34969 ft | 456 kts | 198° |
| 2026-05-08 23:03 | 6.99458 | -75.19117 | 34436 ft | 457 kts | 188° |
| 2026-05-08 23:03 | 6.96301 | -75.19285 | 33578 ft | 462 kts | 178° |
| 2026-05-08 23:04 | 6.93045 | -75.19104 | 32499 ft | 470 kts | 177° |
| 2026-05-08 23:04 | 6.89776 | -75.18920 | 31431 ft | 476 kts | 177° |
| 2026-05-08 23:04 | 6.87573 | -75.18801 | 30823 ft | 476 kts | 177° |
| 2026-05-08 23:04 | 6.83169 | -75.18571 | 29912 ft | 470 kts | 177° |
| 2026-05-08 23:05 | 6.81008 | -75.18460 | 29533 ft | 465 kts | 177° |
| 2026-05-08 23:05 | 6.77743 | -75.18294 | 28926 ft | 460 kts | 178° |
| 2026-05-08 23:05 | 6.74551 | -75.18132 | 28337 ft | 454 kts | 177° |
| 2026-05-08 23:05 | 6.71415 | -75.17973 | 27756 ft | 449 kts | 177° |
| 2026-05-08 23:06 | 6.68294 | -75.17815 | 27174 ft | 443 kts | 177° |
| 2026-05-08 23:06 | 6.65224 | -75.17659 | 26607 ft | 438 kts | 177° |
| 2026-05-08 23:06 | 6.62218 | -75.17507 | 26042 ft | 433 kts | 177° |
| 2026-05-08 23:06 | 6.59218 | -75.17355 | 25479 ft | 428 kts | 177° |
| 2026-05-08 23:07 | 6.57342 | -75.17260 | 25129 ft | 425 kts | 177° |
| 2026-05-08 23:07 | 6.54433 | -75.17113 | 24570 ft | 420 kts | 177° |
| 2026-05-08 23:07 | 6.51519 | -75.16965 | 24018 ft | 416 kts | 177° |
| 2026-05-08 23:07 | 6.48629 | -75.16819 | 23370 ft | 414 kts | 177° |
| 2026-05-08 23:08 | 6.45790 | -75.16675 | 22906 ft | 408 kts | 177° |
| 2026-05-08 23:08 | 6.42959 | -75.16533 | 22372 ft | 404 kts | 178° |
| 2026-05-08 23:08 | 6.40162 | -75.16588 | 21746 ft | 402 kts | 186° |
| 2026-05-08 23:08 | 6.37396 | -75.17015 | 21280 ft | 396 kts | 193° |
| 2026-05-08 23:09 | 6.34775 | -75.17709 | 20757 ft | 391 kts | 196° |
| 2026-05-08 23:09 | 6.32141 | -75.18436 | 20224 ft | 387 kts | 195° |
| 2026-05-08 23:09 | 6.29567 | -75.19138 | 19699 ft | 384 kts | 195° |
| 2026-05-08 23:09 | 6.27016 | -75.19831 | 19185 ft | 380 kts | 195° |
| 2026-05-08 23:10 | 6.26432 | -75.19989 | 19049 ft | 379 kts | 195° |
| 2026-05-08 23:12 | 6.24640 | -75.20468 | 18687 ft | 377 kts | 194° |
| 2026-05-08 23:12 | 6.22113 | -75.21124 | 18176 ft | 373 kts | 194° |
| 2026-05-08 23:12 | 6.19585 | -75.21787 | 17649 ft | 370 kts | 194° |
| 2026-05-08 23:13 | 6.17140 | -75.22444 | 17130 ft | 367 kts | 194° |
| 2026-05-08 23:13 | 6.14631 | -75.23125 | 16236 ft | 374 kts | 195° |
| 2026-05-08 23:13 | 6.12134 | -75.23808 | 15567 ft | 375 kts | 195° |
| 2026-05-08 23:13 | 6.09621 | -75.24497 | 15165 ft | 367 kts | 195° |
| 2026-05-08 23:14 | 6.07159 | -75.25172 | 14593 ft | 365 kts | 195° |
| 2026-05-08 23:14 | 6.04756 | -75.25831 | 14299 ft | 355 kts | 195° |
| 2026-05-08 23:14 | 6.02434 | -75.26468 | 14155 ft | 341 kts | 195° |
| 2026-05-08 23:14 | 6.00170 | -75.27090 | 14028 ft | 328 kts | 195° |
| 2026-05-08 23:15 | 5.98002 | -75.27685 | 13908 ft | 315 kts | 195° |
| 2026-05-08 23:15 | 5.95918 | -75.28257 | 13796 ft | 302 kts | 195° |
| 2026-05-08 23:15 | 5.93939 | -75.28799 | 13692 ft | 290 kts | 195° |
| 2026-05-08 23:15 | 5.92017 | -75.29326 | 13585 ft | 279 kts | 195° |
| 2026-05-08 23:16 | 5.90155 | -75.29853 | 13273 ft | 275 kts | 201° |
| 2026-05-08 23:16 | 5.88612 | -75.30867 | 13092 ft | 264 kts | 229° |
| 2026-05-08 23:16 | 5.87730 | -75.32430 | 12878 ft | 255 kts | 255° |
| 2026-05-08 23:16 | 5.87579 | -75.34182 | 12503 ft | 254 kts | 271° |
| 2026-05-08 23:17 | 5.87592 | -75.35975 | 12163 ft | 251 kts | 270° |
| 2026-05-08 23:17 | 5.87590 | -75.37701 | 11854 ft | 247 kts | 270° |
| 2026-05-08 23:17 | 5.87585 | -75.39432 | 11749 ft | 251 kts | 272° |
| 2026-05-08 23:17 | 5.88036 | -75.41048 | 11741 ft | 233 kts | 303° |
| 2026-05-08 23:18 | 5.89161 | -75.42081 | 11719 ft | 211 kts | 336° |
| 2026-05-08 23:18 | 5.90513 | -75.42314 | 11700 ft | 191 kts | 2° |
| 2026-05-08 23:18 | 5.91803 | -75.42238 | 11541 ft | 183 kts | 3° |
| 2026-05-08 23:18 | 5.93076 | -75.42181 | 11245 ft | 181 kts | 1° |
| 2026-05-08 23:19 | 5.94332 | -75.42169 | 10982 ft | 178 kts | 359° |
| 2026-05-08 23:19 | 5.95555 | -75.42175 | 10736 ft | 175 kts | 359° |
| 2026-05-08 23:19 | 5.96769 | -75.42183 | 10491 ft | 172 kts | 359° |
| 2026-05-08 23:19 | 5.97949 | -75.42191 | 10267 ft | 172 kts | 359° |
| 2026-05-08 23:20 | 5.99139 | -75.42199 | 10070 ft | 164 kts | 359° |
| 2026-05-08 23:20 | 6.00247 | -75.42206 | 9824 ft | 153 kts | 359° |
| 2026-05-08 23:20 | 6.01313 | -75.42213 | 9622 ft | 155 kts | 359° |
| 2026-05-08 23:20 | 6.02386 | -75.42220 | 9414 ft | 154 kts | 359° |
| 2026-05-08 23:21 | 6.03461 | -75.42227 | 9207 ft | 153 kts | 359° |
| 2026-05-08 23:21 | 6.04532 | -75.42234 | 9002 ft | 153 kts | 359° |
| 2026-05-08 23:21 | 6.05587 | -75.42241 | 8800 ft | 152 kts | 359° |
| 2026-05-08 23:21 | 6.06649 | -75.42248 | 8596 ft | 152 kts | 359° |
| 2026-05-08 23:22 | 6.07713 | -75.42255 | 8393 ft | 152 kts | 359° |
| 2026-05-08 23:22 | 6.08775 | -75.42262 | 8185 ft | 151 kts | 359° |
| 2026-05-08 23:22 | 6.09817 | -75.42269 | 7992 ft | 151 kts | 359° |
| 2026-05-08 23:22 | 6.10795 | -75.42275 | 7803 ft | 150 kts | 359° |
| 2026-05-08 23:23 | 6.11839 | -75.42283 | 7650 ft | 149 kts | 359° |
| 2026-05-08 23:23 | 6.12891 | -75.42291 | 7462 ft | 150 kts | 359° |
| 2026-05-08 23:23 | 6.13915 | -75.42298 | 7337 ft | 148 kts | 359° |
| 2026-05-08 23:23 | 6.14962 | -75.42307 | 7118 ft | 150 kts | 359° |
| 2026-05-08 23:24 | 6.15935 | -75.42319 | 7048 ft | 117 kts | 359° |
| 2026-05-08 23:24 | 6.16544 | -75.42320 | 7047 ft | 58 kts | 360° |
| 2026-05-08 23:24 | 6.16830 | -75.42331 | 7050 ft | 8 kts | 327° |
| 2026-05-08 23:24 | 6.16854 | -75.42370 | 7049 ft | 8 kts | 291° |
| 2026-05-08 23:25 | 6.16859 | -75.42433 | 7050 ft | 11 kts | 272° |
| 2026-05-08 23:25 | 6.16898 | -75.42506 | 7045 ft | 14 kts | 316° |
| 2026-05-08 23:25 | 6.16989 | -75.42561 | 7046 ft | 17 kts | 332° |
| 2026-05-08 23:25 | 6.17022 | -75.42656 | 7039 ft | 19 kts | 223° |
| 2026-05-08 23:26 | 6.16924 | -75.42761 | 7035 ft | 22 kts | 248° |
| 2026-05-08 23:26 | 6.16943 | -75.42836 | 7030 ft | 10 kts | 340° |
| 2026-05-08 23:26 | 6.16950 | -75.42837 | 7031 ft | 0 kts | 346° |
| 2026-05-08 23:26 | 6.16951 | -75.42837 | 7031 ft | 1 kts | 347° |
| 2026-05-08 23:27 | 6.16962 | -75.42840 | 7032 ft | 0 kts | 348° |